Vossenack, Germany

08:22 AM CEST am 01. Mai 2017 (GMT +0200)
INORDRHE79 | | Change Station

Höhe 1388 ft 50.68 °N, 6.36 °E | Updated 2 minutes ago

Regen
Regen
44.1 °F
gefühlte 44 °F
N
0.0
Wind Wechselnd Wind aus Süd-Südwest
Gusts 0.0 mph

Heute
Max. -- | schwach -- °F
--% Regenrisiko
Gestern
Max. -- | schwach -- °F
Precip. -- inch
Druck 29.77 inch
Sichtweite 5.6 Meilen
Wolken
Windchill 44 °F
Taupunkt 41 °F
Feuchtigkeit 89%
Regen 0.03 inch
Schneehöhe Nicht verfügbar..
6:08 AM 8:55 PM
Erstes Viertel, 30% visible
METAR ETNN 010520Z AUTO 28007KT 9000 // ////// 09/08 Q1008 ///
Druck 29.77 inch
Sichtweite 5.6 Meilen
Wolken
Windchill 44 °F
Taupunkt 41 °F
Feuchtigkeit 89%
Regen 0.03 inch
Schneehöhe Nicht verfügbar..
6:08 AM 8:55 PM
Erstes Viertel, 30% visible
METAR ETNN 010520Z AUTO 28007KT 9000 // ////// 09/08 Q1008 ///

Get Severe Weather Alerts

Thanks for signing up!

Be on the lookout for a verification email in your inbox.

You'll start receiving the daily forecast at 8 AM.

×

10-Day Weather Forecast

×

Almanac

Astronomie

May. 01, 2017 Aufgang Untergang
Genaue Zeit
Bürgerliche Dämmerung
Nautische Dämmerung
Astronomische Dämmerung
Mond
Länge des sichtbaren Lichts
Tageslänge
Tomorrow will be .
, % of the Moon is Illuminated

Heutige Rekorde

Country Highs Country Lows

Community

WunderPhotos

WunderBlog® & News

Nearby

Luftqualität

  Luftqualität LQ Index Schadstoff
Not available.

Schneehöhe

Station Depth Höhe

Erdbebenaktivität

Stadt Distance Mag. Time & Date
Minimum magnitude displayed is 2.5.

küstennahe Wassertemperaturen

Ort Temperatur

Stations

Wetterstationen in der Umgebung

Stationsstandort Temp. Windchill Taupunkt Feuchtigkeit Wind Precip. Höhe Aktualisiert Art